Terminal Aerodrome Forecast
Issued by NWS Tampa Bay Area, FL

Home | Current Version | Previous Version | Text Only | Print | Product List | Glossary On
Versions: 1 2 3 4 5 6 7 8 9 10 11 12
776
FTUS42 KTBW 031127
TAFSRQ
TAF
KSRQ 031127Z 0312/0412 19006KT P6SM SCT015 BKN040
      TEMPO 0312/0314 BKN015
     FM031400 21008KT P6SM SCT040 BKN200
     FM031800 24010G15KT P6SM FEW050 SCT150 BKN200
     FM040000 26007KT P6SM BKN150 OVC200=

USA.gov is the U.S. government's official web portal to all federal, state and local government web resources and services.